createdAt,value
2023-05-02T00:01:31.582Z,1.00
2023-05-02T00:03:58.132Z,0.90
2023-05-02T00:06:24.867Z,0.93
2023-05-02T00:08:51.432Z,0.85
2023-05-02T00:11:17.871Z,0.80
2023-05-02T00:13:44.722Z,0.88
2023-05-02T00:16:11.344Z,1.10
2023-05-02T00:18:37.835Z,0.65
2023-05-02T00:21:04.326Z,0.73
2023-05-02T00:23:31.941Z,0.85
2023-05-02T00:25:58.423Z,0.63
2023-05-02T00:28:26.467Z,0.93
2023-05-02T00:30:53.508Z,0.70
2023-05-02T00:33:19.966Z,0.98
2023-05-02T00:35:46.429Z,1.08
2023-05-02T00:38:12.959Z,0.82
2023-05-02T00:40:47.755Z,1.20
2023-05-02T00:43:15.358Z,0.88
2023-05-02T00:45:43.588Z,0.70
2023-05-02T00:48:10.836Z,0.95
2023-05-02T00:50:38.759Z,0.88
2023-05-02T00:53:05.588Z,1.00
2023-05-02T00:55:36.085Z,0.77
2023-05-02T00:58:06.810Z,0.90
2023-05-02T01:00:59.936Z,0.82
2023-05-02T01:04:00.388Z,1.15
2023-05-02T01:06:42.261Z,0.90
2023-05-02T01:09:30.368Z,0.68
2023-05-02T01:12:05.569Z,0.90
2023-05-02T01:14:55.182Z,0.90
2023-05-02T01:17:24.897Z,0.80
2023-05-02T01:19:55.274Z,0.95
2023-05-02T01:22:24.615Z,0.68
2023-05-02T01:25:14.007Z,1.08
2023-05-02T01:27:47.057Z,0.98
2023-05-02T01:30:16.396Z,0.73
2023-05-02T01:32:46.613Z,0.80
2023-05-02T01:35:18.215Z,0.90
2023-05-02T01:37:47.174Z,0.98
2023-05-02T01:40:18.649Z,0.82
2023-05-02T01:42:50.156Z,0.90
2023-05-02T01:45:18.618Z,1.02
2023-05-02T01:47:46.729Z,0.90
2023-05-02T01:50:17.352Z,0.75
2023-05-02T01:52:47.414Z,0.75
2023-05-02T01:55:16.179Z,0.77
2023-05-02T01:57:45.792Z,0.88
2023-05-02T02:00:13.798Z,1.02
2023-05-02T02:02:42.478Z,1.30
2023-05-02T02:05:10.616Z,1.50
2023-05-02T02:07:40.642Z,1.15
2023-05-02T02:10:11.187Z,1.00
2023-05-02T02:12:52.219Z,1.02
2023-05-02T02:15:25.713Z,0.95
2023-05-02T02:17:57.265Z,1.10
2023-05-02T02:20:23.766Z,1.17
2023-05-02T02:22:51.443Z,0.77
2023-05-02T02:25:19.884Z,1.13
2023-05-02T02:27:47.601Z,1.10
2023-05-02T02:30:14.170Z,1.30
2023-05-02T02:32:40.675Z,1.15
2023-05-02T02:35:10.413Z,1.23
2023-05-02T02:37:56.648Z,1.33
2023-05-02T02:40:29.356Z,1.27
2023-05-02T02:43:09.200Z,1.05
2023-05-02T02:45:43.393Z,1.13
2023-05-02T02:48:27.938Z,1.17
2023-05-02T02:51:40.639Z,1.33
2023-05-02T02:54:29.398Z,1.20
2023-05-02T02:57:07.651Z,1.20
2023-05-02T02:59:40.741Z,1.40
2023-05-02T03:02:12.511Z,1.00
2023-05-02T03:04:44.998Z,1.25
2023-05-02T03:07:14.979Z,1.20
2023-05-02T03:09:48.472Z,1.10
2023-05-02T03:12:15.080Z,1.63
2023-05-02T03:14:42.461Z,1.00
2023-05-02T03:17:11.764Z,1.10
2023-05-02T03:19:38.491Z,1.02
2023-05-02T03:22:05.900Z,1.35
2023-05-02T03:24:32.453Z,1.10
2023-05-02T03:26:59.575Z,1.20
2023-05-02T03:29:26.839Z,1.20
2023-05-02T03:31:53.353Z,1.33
2023-05-02T03:34:21.940Z,0.93
2023-05-02T03:36:48.540Z,1.05
2023-05-02T03:39:15.428Z,1.27
2023-05-02T03:41:46.558Z,1.02
2023-05-02T03:44:15.834Z,1.20
2023-05-02T03:46:45.445Z,1.13
2023-05-02T03:49:15.205Z,1.02
2023-05-02T03:51:44.652Z,0.85
2023-05-02T03:54:13.578Z,1.23
2023-05-02T03:56:42.661Z,1.00
2023-05-02T03:59:09.307Z,1.00
2023-05-02T04:01:35.816Z,0.90
2023-05-02T04:04:02.539Z,0.98
2023-05-02T04:06:29.287Z,1.42
2023-05-02T04:08:55.750Z,0.93
2023-05-02T04:11:22.287Z,1.23
2023-05-02T04:13:48.831Z,1.30
2023-05-02T04:16:15.874Z,1.50
2023-05-02T04:18:44.469Z,1.00
2023-05-02T04:21:11.012Z,1.20
2023-05-02T04:23:37.754Z,1.40
2023-05-02T04:26:04.208Z,1.00
2023-05-02T04:28:30.688Z,0.73
2023-05-02T04:30:57.726Z,0.90
2023-05-02T04:33:24.593Z,1.00
2023-05-02T04:35:51.168Z,1.13
2023-05-02T04:38:17.742Z,1.30
2023-05-02T04:40:46.295Z,1.15
2023-05-02T04:43:12.726Z,1.15
2023-05-02T04:45:39.191Z,1.38
2023-05-02T04:48:05.901Z,1.30
2023-05-02T04:50:32.882Z,1.40
2023-05-02T04:52:59.537Z,1.70
2023-05-02T04:55:26.134Z,1.20
2023-05-02T04:57:52.677Z,1.90
2023-05-02T05:00:19.260Z,1.67
2023-05-02T05:02:49.344Z,1.63
2023-05-02T05:05:16.499Z,1.70
2023-05-02T05:07:43.497Z,1.92
2023-05-02T05:10:11.471Z,2.00
2023-05-02T05:12:38.187Z,2.20
2023-05-02T05:15:05.115Z,2.00
2023-05-02T05:17:31.622Z,2.17
2023-05-02T05:19:58.219Z,2.03
2023-05-02T05:22:24.775Z,1.85
2023-05-02T05:24:55.238Z,2.40
2023-05-02T05:27:22.056Z,1.75
2023-05-02T05:29:48.621Z,2.15
2023-05-02T05:32:18.293Z,2.28
2023-05-02T05:34:51.824Z,2.25
2023-05-02T05:37:18.784Z,2.33
2023-05-02T05:39:48.288Z,2.10
2023-05-02T05:42:18.672Z,2.15
2023-05-02T05:44:49.593Z,3.45
2023-05-02T05:47:22.050Z,3.22
2023-05-02T05:49:53.154Z,3.97
2023-05-02T05:52:19.672Z,3.05
2023-05-02T05:54:51.386Z,3.20
2023-05-02T05:57:18.066Z,2.88
2023-05-02T05:59:48.811Z,2.53
2023-05-02T06:02:19.832Z,2.97
2023-05-02T06:04:47.565Z,2.58
2023-05-02T06:07:15.880Z,3.20
2023-05-02T06:09:42.616Z,2.90
2023-05-02T06:12:09.411Z,2.65
2023-05-02T06:14:36.227Z,2.72
2023-05-02T06:17:02.941Z,2.75
2023-05-02T06:19:29.773Z,3.05
2023-05-02T06:21:56.512Z,3.55
2023-05-02T06:24:23.206Z,3.25
2023-05-02T06:26:51.613Z,3.15
2023-05-02T06:29:18.070Z,3.10
2023-05-02T06:31:46.160Z,3.20
2023-05-02T06:34:12.734Z,3.40
2023-05-02T06:36:39.181Z,3.35
2023-05-02T06:39:05.734Z,3.72
2023-05-02T06:41:32.162Z,3.72
2023-05-02T06:43:58.811Z,3.40
2023-05-02T06:46:29.313Z,3.92
2023-05-02T06:48:55.731Z,3.28
2023-05-02T06:51:22.521Z,3.53
2023-05-02T06:53:49.181Z,3.75
2023-05-02T06:56:18.964Z,3.90
2023-05-02T06:58:48.932Z,3.75
2023-05-02T07:01:18.483Z,3.60
2023-05-02T07:03:47.378Z,3.25
2023-05-02T07:06:16.916Z,3.10
2023-05-02T07:08:46.115Z,4.15
2023-05-02T07:11:12.728Z,3.30
2023-05-02T07:13:39.162Z,3.10
2023-05-02T07:16:06.251Z,3.10
2023-05-02T07:18:32.758Z,3.10
2023-05-02T07:20:59.349Z,3.88
2023-05-02T07:23:25.915Z,3.00
2023-05-02T07:25:52.392Z,3.53
2023-05-02T07:28:18.902Z,3.40
2023-05-02T07:30:46.748Z,3.10
2023-05-02T07:33:18.950Z,3.35
2023-05-02T07:35:48.576Z,3.40
2023-05-02T07:38:17.856Z,3.22
2023-05-02T07:40:46.462Z,2.42
2023-05-02T07:43:15.402Z,3.30
2023-05-02T07:45:42.234Z,3.90
2023-05-02T07:48:08.798Z,3.13
2023-05-02T07:50:35.540Z,3.05
2023-05-02T07:53:02.025Z,3.00
2023-05-02T07:55:28.675Z,4.20
2023-05-02T07:57:55.139Z,2.67
2023-05-02T08:00:21.746Z,3.63
2023-05-02T08:02:48.351Z,3.08
2023-05-02T08:05:18.509Z,3.10
2023-05-02T08:07:48.270Z,4.45
2023-05-02T08:10:18.289Z,3.13
2023-05-02T08:12:46.352Z,2.80
2023-05-02T08:15:14.638Z,2.35
2023-05-02T08:17:41.725Z,2.80
2023-05-02T08:20:08.565Z,3.00
2023-05-02T08:22:35.057Z,2.50
2023-05-02T08:25:01.557Z,2.75
2023-05-02T08:27:28.049Z,2.70
2023-05-02T08:29:54.537Z,5.90
2023-05-02T08:32:22.349Z,3.00
2023-05-02T08:34:48.884Z,3.45
2023-05-02T08:37:18.480Z,3.20
2023-05-02T08:39:47.970Z,6.18
2023-05-02T08:42:16.283Z,6.22
2023-05-02T08:44:42.785Z,5.82
2023-05-02T08:47:15.826Z,6.25
2023-05-02T08:49:42.484Z,5.10
2023-05-02T08:52:12.222Z,5.70
2023-05-02T08:54:39.188Z,6.95
2023-05-02T08:57:05.949Z,3.00
2023-05-02T08:59:32.548Z,2.85
2023-05-02T09:02:17.865Z,2.45
2023-05-02T09:04:53.342Z,2.67
2023-05-02T09:07:19.876Z,2.33
2023-05-02T09:09:49.294Z,3.13
2023-05-02T09:12:26.409Z,2.40
2023-05-02T09:15:11.592Z,2.85
2023-05-02T09:17:47.318Z,5.53
2023-05-02T09:20:18.958Z,5.47
2023-05-02T09:22:50.679Z,5.15
2023-05-02T09:25:17.767Z,5.68
2023-05-02T09:27:55.220Z,5.13
2023-05-02T09:30:23.056Z,5.68
2023-05-02T09:32:55.904Z,5.32
2023-05-02T09:35:26.020Z,5.30
2023-05-02T09:37:59.272Z,4.90
2023-05-02T09:40:27.539Z,5.53
2023-05-02T09:42:54.044Z,4.95
2023-05-02T09:45:29.584Z,5.25
2023-05-02T09:48:02.614Z,5.15
2023-05-02T09:50:36.471Z,5.30
2023-05-02T09:53:11.228Z,5.50
2023-05-02T09:55:37.885Z,5.40
2023-05-02T09:58:04.506Z,5.85
2023-05-02T10:00:40.504Z,5.25
2023-05-02T10:03:08.533Z,4.97
2023-05-02T10:05:40.285Z,5.03
2023-05-02T10:08:07.861Z,5.25
2023-05-02T10:10:37.004Z,5.78
2023-05-02T10:13:05.214Z,5.43
2023-05-02T10:15:33.815Z,5.80
2023-05-02T10:18:08.923Z,5.30
2023-05-02T10:20:37.734Z,5.32
2023-05-02T10:23:06.094Z,4.82
2023-05-02T10:25:33.326Z,5.03
2023-05-02T10:28:00.489Z,5.07
2023-05-02T10:30:27.185Z,5.03
2023-05-02T10:32:56.858Z,4.80
2023-05-02T10:35:26.632Z,5.00
2023-05-02T10:37:53.772Z,4.70
2023-05-02T10:40:20.317Z,4.90
2023-05-02T10:42:51.129Z,4.88
2023-05-02T10:45:31.886Z,5.70
2023-05-02T10:48:22.225Z,5.45
2023-05-02T10:50:52.290Z,4.80
2023-05-02T10:53:22.629Z,4.93
2023-05-02T10:56:21.772Z,4.45
2023-05-02T10:58:50.262Z,4.50
2023-05-02T11:01:29.325Z,4.75
2023-05-02T11:04:01.069Z,4.30
2023-05-02T11:06:29.130Z,4.07
2023-05-02T11:09:24.760Z,4.30
2023-05-02T11:11:54.918Z,4.32
2023-05-02T11:14:30.837Z,4.15
2023-05-02T11:17:06.174Z,3.88
2023-05-02T11:19:38.238Z,4.38
2023-05-02T11:22:24.386Z,4.03
2023-05-02T11:24:51.261Z,3.88
2023-05-02T11:27:29.980Z,3.63
2023-05-02T11:29:58.145Z,4.10
2023-05-02T11:32:50.159Z,4.00
2023-05-02T11:35:23.800Z,3.80
2023-05-02T11:37:54.350Z,3.85
2023-05-02T11:40:20.939Z,3.92
2023-05-02T11:42:47.656Z,4.05
2023-05-02T11:45:17.100Z,4.50
2023-05-02T11:47:44.620Z,4.00
2023-05-02T11:50:12.512Z,3.88
2023-05-02T11:52:40.777Z,3.55
2023-05-02T11:55:11.735Z,3.63
2023-05-02T11:57:39.469Z,3.90
2023-05-02T12:00:06.872Z,4.13
2023-05-02T12:02:43.512Z,4.07
2023-05-02T12:05:16.689Z,4.18
2023-05-02T12:07:49.338Z,4.95
2023-05-02T12:10:16.575Z,3.78
2023-05-02T12:12:45.983Z,4.15
2023-05-02T12:15:12.913Z,4.00
2023-05-02T12:17:42.709Z,3.60
2023-05-02T12:20:10.870Z,4.05
2023-05-02T12:22:38.070Z,3.53
2023-05-02T12:25:08.699Z,3.95
2023-05-02T12:27:35.738Z,4.03
2023-05-02T12:30:02.415Z,3.65
2023-05-02T12:32:34.791Z,4.40
2023-05-02T12:35:03.789Z,4.13
2023-05-02T12:37:30.370Z,4.20
2023-05-02T12:39:56.838Z,4.20
2023-05-02T12:42:25.311Z,4.13
2023-05-02T12:44:53.076Z,4.10
2023-05-02T12:47:21.397Z,3.97
2023-05-02T12:49:56.432Z,4.10
2023-05-02T12:52:49.769Z,4.68
2023-05-02T12:55:21.178Z,4.50
2023-05-02T12:57:48.325Z,3.47
2023-05-02T13:00:20.102Z,4.18
2023-05-02T13:02:49.685Z,3.80
2023-05-02T13:05:19.987Z,3.92
2023-05-02T13:07:49.711Z,4.10
2023-05-02T13:10:19.293Z,3.80
2023-05-02T13:12:48.088Z,3.63
2023-05-02T13:15:16.777Z,3.90
2023-05-02T13:17:43.654Z,3.90
2023-05-02T13:20:10.787Z,4.15
2023-05-02T13:22:37.730Z,4.15
2023-05-02T13:25:05.432Z,4.45
2023-05-02T13:27:34.047Z,3.92
2023-05-02T13:30:07.512Z,4.50
2023-05-02T13:32:35.661Z,4.30
2023-05-02T13:35:04.170Z,4.35
2023-05-02T13:37:30.662Z,3.90
2023-05-02T13:39:57.319Z,3.70
2023-05-02T13:42:23.825Z,4.13
2023-05-02T13:44:50.508Z,4.38
2023-05-02T13:47:18.715Z,3.97
2023-05-02T13:49:45.148Z,4.20
2023-05-02T13:52:11.679Z,3.85
2023-05-02T13:54:38.258Z,3.80
2023-05-02T13:57:05.574Z,3.90
2023-05-02T13:59:32.346Z,4.55
2023-05-02T14:01:59.017Z,4.53
2023-05-02T14:04:25.713Z,3.70
2023-05-02T14:06:52.436Z,4.30
2023-05-02T14:09:22.189Z,4.45
2023-05-02T14:11:51.960Z,4.28
2023-05-02T14:14:21.638Z,3.70
2023-05-02T14:16:51.420Z,4.45
2023-05-02T14:19:20.835Z,3.22
2023-05-02T14:21:54.826Z,3.20
2023-05-02T14:24:21.362Z,3.80
2023-05-02T14:26:49.659Z,3.70
2023-05-02T14:29:16.318Z,3.85
2023-05-02T14:31:42.932Z,3.70
2023-05-02T14:34:09.441Z,3.53
2023-05-02T14:36:35.933Z,3.60
2023-05-02T14:39:02.390Z,3.20
2023-05-02T14:41:28.844Z,3.80
2023-05-02T14:43:55.299Z,3.17
2023-05-02T14:46:21.918Z,3.33
2023-05-02T14:48:51.179Z,3.47
2023-05-02T14:51:20.444Z,3.67
2023-05-02T14:53:51.297Z,3.45
2023-05-02T14:56:20.488Z,3.70
2023-05-02T14:58:49.073Z,3.88
2023-05-02T15:01:23.068Z,3.40
2023-05-02T15:04:05.832Z,3.40
2023-05-02T15:06:34.114Z,3.78
2023-05-02T15:09:01.672Z,3.50
2023-05-02T15:11:28.166Z,3.50
2023-05-02T15:13:56.554Z,3.72
2023-05-02T15:16:24.964Z,3.70
2023-05-02T15:18:51.479Z,3.40
2023-05-02T15:21:21.983Z,3.65
2023-05-02T15:23:51.541Z,3.85
2023-05-02T15:26:21.537Z,3.63
2023-05-02T15:28:51.359Z,3.80
2023-05-02T15:31:21.553Z,3.60
2023-05-02T15:33:51.442Z,3.53
2023-05-02T15:36:20.731Z,3.50
2023-05-02T15:38:49.681Z,3.58
2023-05-02T15:41:16.505Z,3.95
2023-05-02T15:43:43.558Z,3.63
2023-05-02T15:46:11.170Z,3.42
2023-05-02T15:48:37.676Z,3.58
2023-05-02T15:51:05.408Z,3.45
2023-05-02T15:53:32.164Z,3.40
2023-05-02T15:55:58.655Z,3.75
2023-05-02T15:58:25.128Z,3.80
2023-05-02T16:00:52.595Z,4.05
2023-05-02T16:03:19.912Z,3.90
2023-05-02T16:05:48.718Z,3.80
2023-05-02T16:08:15.187Z,4.07
2023-05-02T16:10:43.504Z,3.80
2023-05-02T16:13:10.270Z,4.53
2023-05-02T16:15:37.828Z,4.20
2023-05-02T16:18:04.419Z,4.25
2023-05-02T16:20:33.870Z,4.13
2023-05-02T16:23:00.566Z,4.25
2023-05-02T16:25:27.075Z,4.00
2023-05-02T16:27:53.508Z,3.85
2023-05-02T16:30:20.023Z,4.10
2023-05-02T16:32:46.948Z,4.25
2023-05-02T16:35:14.121Z,4.20
2023-05-02T16:37:41.370Z,4.28
2023-05-02T16:40:08.938Z,4.10
2023-05-02T16:42:35.699Z,4.03
2023-05-02T16:45:02.321Z,4.40
2023-05-02T16:47:28.883Z,4.30
2023-05-02T16:49:56.757Z,4.70
2023-05-02T16:52:23.824Z,4.60
2023-05-02T16:54:50.494Z,4.57
2023-05-02T16:57:21.274Z,4.78
2023-05-02T16:59:52.535Z,4.63
2023-05-02T17:02:22.145Z,5.00
2023-05-02T17:04:52.265Z,4.70
2023-05-02T17:07:21.708Z,4.43
2023-05-02T17:09:50.917Z,4.45
2023-05-02T17:12:22.710Z,4.63
2023-05-02T17:14:52.320Z,4.47
2023-05-02T17:17:23.518Z,4.93
2023-05-02T17:19:50.693Z,4.70
2023-05-02T17:22:21.326Z,4.80
2023-05-02T17:24:53.988Z,4.47
2023-05-02T17:27:20.554Z,4.50
2023-05-02T17:29:49.370Z,4.60
2023-05-02T17:32:16.005Z,4.60
2023-05-02T17:34:45.914Z,4.90
2023-05-02T17:37:12.648Z,4.72
2023-05-02T17:39:39.151Z,5.13
2023-05-02T17:42:05.772Z,4.72
2023-05-02T17:44:35.873Z,4.85
2023-05-02T17:47:03.507Z,4.30
2023-05-02T17:49:30.080Z,4.30
2023-05-02T17:51:56.897Z,4.20
2023-05-02T17:54:23.402Z,4.00
2023-05-02T17:56:50.669Z,4.43
2023-05-02T17:59:19.369Z,4.45
2023-05-02T18:01:45.883Z,4.15
2023-05-02T18:04:14.131Z,4.90
2023-05-02T18:06:40.924Z,3.85
2023-05-02T18:09:07.418Z,4.40
2023-05-02T18:11:33.913Z,4.38
2023-05-02T18:14:03.693Z,3.97
2023-05-02T18:16:31.880Z,4.65
2023-05-02T18:18:58.455Z,4.50
2023-05-02T18:21:25.844Z,4.22
2023-05-02T18:23:52.343Z,4.28
2023-05-02T18:26:22.082Z,4.40
2023-05-02T18:28:53.211Z,3.92
2023-05-02T18:31:22.230Z,4.20
2023-05-02T18:33:53.503Z,4.00
2023-05-02T18:36:28.370Z,4.18
2023-05-02T18:38:57.788Z,3.97
2023-05-02T18:41:24.346Z,4.40
2023-05-02T18:43:50.999Z,2.13
2023-05-02T18:46:19.792Z,1.58
2023-05-02T18:48:46.415Z,2.10
2023-05-02T18:51:13.392Z,1.20
2023-05-02T18:53:39.871Z,1.42
2023-05-02T18:56:13.396Z,3.90
2023-05-02T18:58:40.879Z,4.07
2023-05-02T19:01:15.243Z,3.65
2023-05-02T19:03:43.612Z,4.88
2023-05-02T19:06:10.853Z,4.07
2023-05-02T19:08:37.427Z,4.20
2023-05-02T19:11:04.308Z,5.03
2023-05-02T19:13:31.240Z,3.25
2023-05-02T19:15:58.090Z,2.42
2023-05-02T19:18:24.639Z,1.13
2023-05-02T19:20:53.788Z,1.27
2023-05-02T19:23:23.148Z,1.17
2023-05-02T19:25:53.952Z,1.52
2023-05-02T19:28:23.502Z,1.70
2023-05-02T19:30:54.869Z,1.65
2023-05-02T19:33:24.450Z,1.80
2023-05-02T19:35:54.291Z,1.55
2023-05-02T19:38:24.867Z,1.38
2023-05-02T19:40:51.651Z,1.35
2023-05-02T19:43:18.178Z,1.60
2023-05-02T19:45:44.860Z,1.70
2023-05-02T19:48:12.796Z,1.50
2023-05-02T19:50:42.767Z,1.98
2023-05-02T19:53:09.262Z,2.03
2023-05-02T19:55:35.883Z,1.58
2023-05-02T19:58:04.246Z,1.63
2023-05-02T20:00:30.979Z,2.13
2023-05-02T20:02:57.671Z,1.85
2023-05-02T20:05:29.790Z,2.13
2023-05-02T20:07:56.314Z,1.90
2023-05-02T20:10:23.029Z,1.75
2023-05-02T20:12:52.725Z,2.30
2023-05-02T20:15:21.365Z,1.90
2023-05-02T20:17:47.941Z,1.70
2023-05-02T20:20:14.567Z,1.83
2023-05-02T20:22:41.366Z,1.90
2023-05-02T20:25:10.340Z,1.50
2023-05-02T20:27:36.825Z,1.30
2023-05-02T20:30:03.697Z,1.98
2023-05-02T20:32:30.701Z,1.35
2023-05-02T20:34:57.689Z,1.70
2023-05-02T20:37:25.545Z,1.65
2023-05-02T20:39:52.812Z,1.73
2023-05-02T20:42:23.379Z,1.50
2023-05-02T20:45:08.792Z,2.08
2023-05-02T20:47:35.341Z,1.85
2023-05-02T20:50:02.078Z,1.90
2023-05-02T20:52:28.995Z,1.42
2023-05-02T20:54:56.308Z,1.95
2023-05-02T20:57:26.464Z,1.77
2023-05-02T20:59:59.520Z,1.67
2023-05-02T21:02:27.418Z,1.33
2023-05-02T21:04:55.099Z,1.70
2023-05-02T21:07:25.752Z,1.70
2023-05-02T21:09:55.919Z,1.92
2023-05-02T21:12:24.181Z,1.33
2023-05-02T21:14:50.774Z,1.75
2023-05-02T21:17:17.509Z,1.65
2023-05-02T21:19:43.995Z,1.90
2023-05-02T21:22:10.527Z,1.98
2023-05-02T21:24:36.985Z,1.90
2023-05-02T21:27:03.727Z,2.33
2023-05-02T21:29:30.231Z,1.80
2023-05-02T21:31:56.707Z,1.60
2023-05-02T21:34:24.934Z,1.75
2023-05-02T21:36:51.411Z,1.40
2023-05-02T21:39:18.231Z,1.90
2023-05-02T21:41:44.660Z,1.70
2023-05-02T21:44:11.613Z,1.45
2023-05-02T21:46:38.055Z,1.60
2023-05-02T21:49:04.553Z,1.77
2023-05-02T21:51:31.625Z,1.63
2023-05-02T21:53:58.028Z,2.30
2023-05-02T21:56:27.636Z,1.70
2023-05-02T21:58:56.365Z,1.70
2023-05-02T22:01:22.928Z,1.92
2023-05-02T22:03:49.450Z,1.27
2023-05-02T22:06:16.749Z,1.92
2023-05-02T22:08:43.926Z,1.95
2023-05-02T22:11:10.400Z,1.52
2023-05-02T22:13:37.269Z,1.80
2023-05-02T22:16:03.892Z,1.95
2023-05-02T22:18:30.368Z,2.05
2023-05-02T22:21:01.552Z,1.83
2023-05-02T22:23:28.068Z,2.60
2023-05-02T22:25:54.495Z,1.90
2023-05-02T22:28:21.047Z,1.77
2023-05-02T22:30:47.559Z,2.08
2023-05-02T22:33:14.314Z,2.17
2023-05-02T22:35:40.997Z,2.33
2023-05-02T22:38:10.891Z,2.10
2023-05-02T22:40:37.374Z,2.45
2023-05-02T22:43:03.915Z,1.88
2023-05-02T22:45:30.504Z,1.77
2023-05-02T22:48:00.682Z,2.15
2023-05-02T22:50:31.321Z,2.28
2023-05-02T22:53:03.759Z,2.20
2023-05-02T22:55:30.627Z,1.50
2023-05-02T22:57:59.469Z,2.10
2023-05-02T23:00:26.024Z,1.83
2023-05-02T23:02:52.588Z,1.85
2023-05-02T23:05:19.498Z,1.40
2023-05-02T23:07:45.956Z,2.00
2023-05-02T23:10:12.433Z,1.95
2023-05-02T23:12:39.162Z,1.40
2023-05-02T23:15:06.857Z,2.17
2023-05-02T23:17:33.469Z,1.80
2023-05-02T23:20:03.366Z,2.10
2023-05-02T23:22:31.335Z,2.10
2023-05-02T23:24:57.788Z,1.67
2023-05-02T23:27:24.212Z,1.95
2023-05-02T23:29:50.681Z,2.05
2023-05-02T23:32:17.313Z,1.92
2023-05-02T23:34:44.408Z,1.98
2023-05-02T23:37:12.734Z,2.03
2023-05-02T23:39:39.326Z,1.63
2023-05-02T23:42:06.464Z,2.30
2023-05-02T23:44:33.281Z,1.95
2023-05-02T23:47:00.704Z,2.03
2023-05-02T23:49:27.778Z,1.75
2023-05-02T23:51:54.375Z,1.83
2023-05-02T23:54:20.796Z,1.67
2023-05-02T23:56:47.251Z,1.75
2023-05-02T23:59:13.705Z,2.40
